sensor_id;sensor_type;location;lat;lon;timestamp;P1;durP1;ratioP1;P2;durP2;ratioP2
10473;SDS011;5284;50.446;7.904;2023-07-31T00:04:24;6.75;;;1.90;;
10473;SDS011;5284;50.446;7.904;2023-07-31T00:09:27;8.80;;;2.15;;
10473;SDS011;5284;50.446;7.904;2023-07-31T00:14:33;6.93;;;1.92;;
10473;SDS011;5284;50.446;7.904;2023-07-31T00:19:36;11.95;;;2.15;;
10473;SDS011;5284;50.446;7.904;2023-07-31T00:24:39;14.30;;;2.53;;
10473;SDS011;5284;50.446;7.904;2023-07-31T00:29:43;8.13;;;1.85;;
10473;SDS011;5284;50.446;7.904;2023-07-31T00:34:46;10.13;;;1.98;;
10473;SDS011;5284;50.446;7.904;2023-07-31T00:39:48;3.78;;;1.65;;
10473;SDS011;5284;50.446;7.904;2023-07-31T00:44:53;4.25;;;1.77;;
10473;SDS011;5284;50.446;7.904;2023-07-31T00:49:55;4.00;;;1.88;;
10473;SDS011;5284;50.446;7.904;2023-07-31T00:54:58;6.43;;;1.80;;
10473;SDS011;5284;50.446;7.904;2023-07-31T01:00:07;4.68;;;2.03;;
10473;SDS011;5284;50.446;7.904;2023-07-31T01:05:11;8.23;;;2.42;;
10473;SDS011;5284;50.446;7.904;2023-07-31T01:10:15;5.82;;;1.48;;
10473;SDS011;5284;50.446;7.904;2023-07-31T01:15:24;13.00;;;2.47;;
10473;SDS011;5284;50.446;7.904;2023-07-31T01:20:28;6.90;;;2.10;;
10473;SDS011;5284;50.446;7.904;2023-07-31T01:25:46;12.93;;;2.40;;
10473;SDS011;5284;50.446;7.904;2023-07-31T01:30:53;8.95;;;2.13;;
10473;SDS011;5284;50.446;7.904;2023-07-31T01:41:06;11.07;;;2.38;;
10473;SDS011;5284;50.446;7.904;2023-07-31T01:46:08;5.65;;;2.03;;
10473;SDS011;5284;50.446;7.904;2023-07-31T01:51:11;4.10;;;2.47;;
10473;SDS011;5284;50.446;7.904;2023-07-31T01:56:16;10.65;;;2.20;;
10473;SDS011;5284;50.446;7.904;2023-07-31T02:01:19;6.60;;;2.40;;
10473;SDS011;5284;50.446;7.904;2023-07-31T02:06:22;4.38;;;1.90;;
10473;SDS011;5284;50.446;7.904;2023-07-31T02:11:27;4.40;;;2.10;;
10473;SDS011;5284;50.446;7.904;2023-07-31T02:16:30;3.53;;;1.88;;
10473;SDS011;5284;50.446;7.904;2023-07-31T02:21:35;5.93;;;2.47;;
10473;SDS011;5284;50.446;7.904;2023-07-31T02:26:39;6.95;;;2.20;;
10473;SDS011;5284;50.446;7.904;2023-07-31T02:31:43;11.55;;;2.22;;
10473;SDS011;5284;50.446;7.904;2023-07-31T02:36:46;14.27;;;3.40;;
10473;SDS011;5284;50.446;7.904;2023-07-31T02:41:51;4.55;;;2.35;;
10473;SDS011;5284;50.446;7.904;2023-07-31T02:46:54;5.85;;;2.58;;
10473;SDS011;5284;50.446;7.904;2023-07-31T02:51:57;3.17;;;1.63;;
10473;SDS011;5284;50.446;7.904;2023-07-31T02:57:02;8.38;;;2.00;;
10473;SDS011;5284;50.446;7.904;2023-07-31T03:02:06;5.40;;;2.17;;
10473;SDS011;5284;50.446;7.904;2023-07-31T03:07:09;5.60;;;2.28;;
10473;SDS011;5284;50.446;7.904;2023-07-31T03:12:13;5.22;;;2.42;;
10473;SDS011;5284;50.446;7.904;2023-07-31T03:17:16;12.18;;;2.58;;
10473;SDS011;5284;50.446;7.904;2023-07-31T03:22:19;4.28;;;2.30;;
10473;SDS011;5284;50.446;7.904;2023-07-31T03:27:23;14.77;;;3.67;;
10473;SDS011;5284;50.446;7.904;2023-07-31T03:32:27;8.90;;;2.42;;
10473;SDS011;5284;50.446;7.904;2023-07-31T03:37:30;4.65;;;2.10;;
10473;SDS011;5284;50.446;7.904;2023-07-31T03:42:35;12.60;;;1.90;;
10473;SDS011;5284;50.446;7.904;2023-07-31T03:47:38;6.40;;;2.50;;
10473;SDS011;5284;50.446;7.904;2023-07-31T03:52:42;8.27;;;2.33;;
10473;SDS011;5284;50.446;7.904;2023-07-31T03:57:46;5.93;;;2.50;;
10473;SDS011;5284;50.446;7.904;2023-07-31T04:02:49;5.35;;;1.83;;
10473;SDS011;5284;50.446;7.904;2023-07-31T04:07:52;9.55;;;2.53;;
10473;SDS011;5284;50.446;7.904;2023-07-31T04:12:56;6.53;;;2.20;;
10473;SDS011;5284;50.446;7.904;2023-07-31T04:18:00;7.80;;;2.63;;
10473;SDS011;5284;50.446;7.904;2023-07-31T04:23:03;6.93;;;2.30;;
10473;SDS011;5284;50.446;7.904;2023-07-31T04:28:07;5.20;;;1.80;;
10473;SDS011;5284;50.446;7.904;2023-07-31T04:33:10;7.00;;;1.88;;
10473;SDS011;5284;50.446;7.904;2023-07-31T04:38:13;8.85;;;2.10;;
10473;SDS011;5284;50.446;7.904;2023-07-31T04:43:17;4.47;;;1.77;;
10473;SDS011;5284;50.446;7.904;2023-07-31T04:48:20;6.60;;;2.42;;
10473;SDS011;5284;50.446;7.904;2023-07-31T04:53:24;10.75;;;2.55;;
10473;SDS011;5284;50.446;7.904;2023-07-31T04:58:28;4.93;;;2.10;;
10473;SDS011;5284;50.446;7.904;2023-07-31T05:03:33;5.78;;;1.70;;
10473;SDS011;5284;50.446;7.904;2023-07-31T05:08:36;3.88;;;1.95;;
10473;SDS011;5284;50.446;7.904;2023-07-31T05:13:40;11.50;;;2.00;;
10473;SDS011;5284;50.446;7.904;2023-07-31T05:18:43;9.63;;;2.35;;
10473;SDS011;5284;50.446;7.904;2023-07-31T05:23:46;11.68;;;2.45;;
10473;SDS011;5284;50.446;7.904;2023-07-31T05:28:50;11.55;;;2.08;;
10473;SDS011;5284;50.446;7.904;2023-07-31T05:33:54;4.90;;;1.77;;
10473;SDS011;5284;50.446;7.904;2023-07-31T05:38:57;6.75;;;2.30;;
10473;SDS011;5284;50.446;7.904;2023-07-31T05:44:03;7.03;;;2.17;;
10473;SDS011;5284;50.446;7.904;2023-07-31T05:49:06;4.10;;;2.28;;
10473;SDS011;5284;50.446;7.904;2023-07-31T05:54:09;7.85;;;2.22;;
10473;SDS011;5284;50.446;7.904;2023-07-31T05:59:13;5.50;;;2.60;;
10473;SDS011;5284;50.446;7.904;2023-07-31T06:04:18;8.98;;;2.60;;
10473;SDS011;5284;50.446;7.904;2023-07-31T06:09:25;15.90;;;2.88;;
10473;SDS011;5284;50.446;7.904;2023-07-31T06:14:31;7.00;;;2.08;;
10473;SDS011;5284;50.446;7.904;2023-07-31T06:19:35;5.90;;;2.50;;
10473;SDS011;5284;50.446;7.904;2023-07-31T06:24:39;11.30;;;2.85;;
10473;SDS011;5284;50.446;7.904;2023-07-31T06:29:43;8.82;;;2.92;;
10473;SDS011;5284;50.446;7.904;2023-07-31T06:34:47;13.32;;;2.17;;
10473;SDS011;5284;50.446;7.904;2023-07-31T06:39:51;6.22;;;2.67;;
10473;SDS011;5284;50.446;7.904;2023-07-31T06:44:57;9.60;;;2.60;;
10473;SDS011;5284;50.446;7.904;2023-07-31T06:50:00;7.60;;;2.83;;
10473;SDS011;5284;50.446;7.904;2023-07-31T06:55:08;4.43;;;2.28;;
10473;SDS011;5284;50.446;7.904;2023-07-31T07:00:24;10.45;;;2.55;;
10473;SDS011;5284;50.446;7.904;2023-07-31T07:05:27;12.38;;;3.15;;
10473;SDS011;5284;50.446;7.904;2023-07-31T07:10:30;8.48;;;2.83;;
10473;SDS011;5284;50.446;7.904;2023-07-31T07:15:35;10.05;;;2.92;;
10473;SDS011;5284;50.446;7.904;2023-07-31T07:20:38;9.40;;;2.88;;
10473;SDS011;5284;50.446;7.904;2023-07-31T07:25:41;8.73;;;2.67;;
10473;SDS011;5284;50.446;7.904;2023-07-31T07:30:50;9.85;;;2.80;;
10473;SDS011;5284;50.446;7.904;2023-07-31T07:35:55;8.55;;;2.28;;
10473;SDS011;5284;50.446;7.904;2023-07-31T07:40:58;16.60;;;2.92;;
10473;SDS011;5284;50.446;7.904;2023-07-31T07:46:03;10.73;;;2.92;;
10473;SDS011;5284;50.446;7.904;2023-07-31T07:51:07;9.75;;;2.42;;
10473;SDS011;5284;50.446;7.904;2023-07-31T07:56:10;7.43;;;2.55;;
10473;SDS011;5284;50.446;7.904;2023-07-31T08:01:14;7.03;;;2.55;;
10473;SDS011;5284;50.446;7.904;2023-07-31T08:06:17;14.98;;;2.75;;
10473;SDS011;5284;50.446;7.904;2023-07-31T08:11:21;9.40;;;3.08;;
10473;SDS011;5284;50.446;7.904;2023-07-31T08:16:26;10.43;;;2.38;;
10473;SDS011;5284;50.446;7.904;2023-07-31T08:21:29;9.60;;;3.15;;
10473;SDS011;5284;50.446;7.904;2023-07-31T08:26:33;9.73;;;2.80;;
10473;SDS011;5284;50.446;7.904;2023-07-31T08:31:37;9.77;;;2.38;;
10473;SDS011;5284;50.446;7.904;2023-07-31T08:36:41;15.70;;;3.35;;
10473;SDS011;5284;50.446;7.904;2023-07-31T08:41:44;7.45;;;2.63;;
10473;SDS011;5284;50.446;7.904;2023-07-31T08:46:49;11.88;;;2.95;;
10473;SDS011;5284;50.446;7.904;2023-07-31T08:51:54;8.45;;;3.33;;
10473;SDS011;5284;50.446;7.904;2023-07-31T08:56:59;6.32;;;3.22;;
10473;SDS011;5284;50.446;7.904;2023-07-31T09:02:05;6.47;;;2.58;;
10473;SDS011;5284;50.446;7.904;2023-07-31T09:07:12;8.27;;;2.95;;
10473;SDS011;5284;50.446;7.904;2023-07-31T09:12:17;25.02;;;4.65;;
10473;SDS011;5284;50.446;7.904;2023-07-31T09:17:29;13.80;;;3.50;;
10473;SDS011;5284;50.446;7.904;2023-07-31T09:22:34;9.13;;;3.13;;
10473;SDS011;5284;50.446;7.904;2023-07-31T09:27:45;7.10;;;2.50;;
10473;SDS011;5284;50.446;7.904;2023-07-31T09:32:50;6.07;;;2.42;;
10473;SDS011;5284;50.446;7.904;2023-07-31T09:38:03;19.63;;;3.53;;
10473;SDS011;5284;50.446;7.904;2023-07-31T09:43:10;8.90;;;3.67;;
10473;SDS011;5284;50.446;7.904;2023-07-31T09:48:15;12.18;;;2.97;;
10473;SDS011;5284;50.446;7.904;2023-07-31T09:53:19;14.30;;;3.53;;
10473;SDS011;5284;50.446;7.904;2023-07-31T09:58:21;12.32;;;3.22;;
10473;SDS011;5284;50.446;7.904;2023-07-31T10:03:27;13.93;;;3.50;;
10473;SDS011;5284;50.446;7.904;2023-07-31T10:08:32;9.27;;;2.83;;
10473;SDS011;5284;50.446;7.904;2023-07-31T10:13:38;9.05;;;2.55;;
10473;SDS011;5284;50.446;7.904;2023-07-31T10:18:43;16.02;;;3.08;;
10473;SDS011;5284;50.446;7.904;2023-07-31T10:23:47;9.88;;;3.25;;
10473;SDS011;5284;50.446;7.904;2023-07-31T10:28:52;16.30;;;3.13;;
10473;SDS011;5284;50.446;7.904;2023-07-31T10:33:58;14.93;;;3.03;;
10473;SDS011;5284;50.446;7.904;2023-07-31T10:39:04;6.90;;;3.05;;
10473;SDS011;5284;50.446;7.904;2023-07-31T10:44:36;15.20;;;2.88;;
10473;SDS011;5284;50.446;7.904;2023-07-31T10:49:42;8.25;;;2.97;;
10473;SDS011;5284;50.446;7.904;2023-07-31T10:54:47;7.32;;;2.55;;
10473;SDS011;5284;50.446;7.904;2023-07-31T10:59:51;4.97;;;1.63;;
10473;SDS011;5284;50.446;7.904;2023-07-31T11:05:16;7.88;;;3.03;;
10473;SDS011;5284;50.446;7.904;2023-07-31T11:10:23;7.13;;;3.15;;
10473;SDS011;5284;50.446;7.904;2023-07-31T11:15:27;12.60;;;2.55;;
10473;SDS011;5284;50.446;7.904;2023-07-31T11:20:31;9.07;;;2.65;;
10473;SDS011;5284;50.446;7.904;2023-07-31T11:25:34;6.63;;;2.72;;
10473;SDS011;5284;50.446;7.904;2023-07-31T11:30:40;8.75;;;2.92;;
10473;SDS011;5284;50.446;7.904;2023-07-31T11:35:47;8.85;;;2.10;;
10473;SDS011;5284;50.446;7.904;2023-07-31T11:40:51;7.57;;;2.13;;
10473;SDS011;5284;50.446;7.904;2023-07-31T11:45:55;9.43;;;2.50;;
10473;SDS011;5284;50.446;7.904;2023-07-31T11:51:03;7.13;;;1.80;;
10473;SDS011;5284;50.446;7.904;2023-07-31T11:56:07;6.00;;;1.85;;
10473;SDS011;5284;50.446;7.904;2023-07-31T12:01:13;5.32;;;2.10;;
10473;SDS011;5284;50.446;7.904;2023-07-31T12:06:20;3.00;;;1.98;;
10473;SDS011;5284;50.446;7.904;2023-07-31T12:11:24;4.65;;;1.83;;
10473;SDS011;5284;50.446;7.904;2023-07-31T12:16:28;5.22;;;1.65;;
10473;SDS011;5284;50.446;7.904;2023-07-31T12:21:32;7.70;;;2.33;;
10473;SDS011;5284;50.446;7.904;2023-07-31T12:26:35;8.88;;;2.65;;
10473;SDS011;5284;50.446;7.904;2023-07-31T12:31:40;3.38;;;1.38;;
10473;SDS011;5284;50.446;7.904;2023-07-31T12:36:45;7.03;;;2.00;;
10473;SDS011;5284;50.446;7.904;2023-07-31T12:41:50;8.65;;;1.58;;
10473;SDS011;5284;50.446;7.904;2023-07-31T12:46:54;7.80;;;2.28;;
10473;SDS011;5284;50.446;7.904;2023-07-31T12:51:58;4.05;;;1.75;;
10473;SDS011;5284;50.446;7.904;2023-07-31T12:57:01;2.30;;;1.67;;
10473;SDS011;5284;50.446;7.904;2023-07-31T13:02:05;5.72;;;1.65;;
10473;SDS011;5284;50.446;7.904;2023-07-31T13:07:09;6.13;;;1.60;;
10473;SDS011;5284;50.446;7.904;2023-07-31T13:12:13;8.02;;;1.83;;
10473;SDS011;5284;50.446;7.904;2023-07-31T13:17:16;7.05;;;1.65;;
10473;SDS011;5284;50.446;7.904;2023-07-31T13:22:21;4.10;;;2.03;;
10473;SDS011;5284;50.446;7.904;2023-07-31T13:27:24;5.43;;;1.90;;
10473;SDS011;5284;50.446;7.904;2023-07-31T13:32:27;5.15;;;1.90;;
10473;SDS011;5284;50.446;7.904;2023-07-31T13:37:31;6.03;;;1.98;;
10473;SDS011;5284;50.446;7.904;2023-07-31T13:42:35;9.40;;;2.25;;
10473;SDS011;5284;50.446;7.904;2023-07-31T13:47:38;5.45;;;2.17;;
10473;SDS011;5284;50.446;7.904;2023-07-31T13:52:45;11.60;;;2.15;;
10473;SDS011;5284;50.446;7.904;2023-07-31T13:57:49;6.45;;;1.58;;
10473;SDS011;5284;50.446;7.904;2023-07-31T14:02:54;10.77;;;1.65;;
10473;SDS011;5284;50.446;7.904;2023-07-31T14:08:00;2.88;;;1.65;;
10473;SDS011;5284;50.446;7.904;2023-07-31T14:13:03;7.60;;;1.60;;
10473;SDS011;5284;50.446;7.904;2023-07-31T14:18:06;4.50;;;1.30;;
10473;SDS011;5284;50.446;7.904;2023-07-31T14:23:11;4.43;;;1.80;;
10473;SDS011;5284;50.446;7.904;2023-07-31T14:28:14;6.75;;;1.45;;
10473;SDS011;5284;50.446;7.904;2023-07-31T14:33:17;6.93;;;1.52;;
10473;SDS011;5284;50.446;7.904;2023-07-31T14:38:21;1.70;;;0.95;;
10473;SDS011;5284;50.446;7.904;2023-07-31T14:43:25;7.18;;;1.35;;
10473;SDS011;5284;50.446;7.904;2023-07-31T14:48:28;7.47;;;1.40;;
10473;SDS011;5284;50.446;7.904;2023-07-31T14:53:33;2.75;;;0.88;;
10473;SDS011;5284;50.446;7.904;2023-07-31T14:58:35;3.17;;;1.42;;
10473;SDS011;5284;50.446;7.904;2023-07-31T15:03:40;1.58;;;1.08;;
10473;SDS011;5284;50.446;7.904;2023-07-31T15:08:44;4.85;;;1.42;;
10473;SDS011;5284;50.446;7.904;2023-07-31T15:13:47;1.42;;;0.95;;
10473;SDS011;5284;50.446;7.904;2023-07-31T15:18:50;3.63;;;1.52;;
10473;SDS011;5284;50.446;7.904;2023-07-31T15:23:54;5.20;;;1.15;;
10473;SDS011;5284;50.446;7.904;2023-07-31T15:29:00;3.65;;;0.98;;
10473;SDS011;5284;50.446;7.904;2023-07-31T15:34:05;2.92;;;1.15;;
10473;SDS011;5284;50.446;7.904;2023-07-31T15:39:09;1.65;;;0.95;;
10473;SDS011;5284;50.446;7.904;2023-07-31T15:44:12;3.13;;;1.45;;
10473;SDS011;5284;50.446;7.904;2023-07-31T15:49:15;4.20;;;1.13;;
10473;SDS011;5284;50.446;7.904;2023-07-31T15:54:20;5.72;;;1.27;;
10473;SDS011;5284;50.446;7.904;2023-07-31T15:59:23;6.85;;;1.48;;
10473;SDS011;5284;50.446;7.904;2023-07-31T16:04:26;5.30;;;1.77;;
10473;SDS011;5284;50.446;7.904;2023-07-31T16:09:30;16.85;;;2.78;;
10473;SDS011;5284;50.446;7.904;2023-07-31T16:14:33;24.85;;;2.78;;
10473;SDS011;5284;50.446;7.904;2023-07-31T16:19:37;9.68;;;1.90;;
10473;SDS011;5284;50.446;7.904;2023-07-31T16:24:41;3.78;;;2.03;;
10473;SDS011;5284;50.446;7.904;2023-07-31T16:29:45;11.40;;;2.17;;
10473;SDS011;5284;50.446;7.904;2023-07-31T16:34:48;5.22;;;1.73;;
10473;SDS011;5284;50.446;7.904;2023-07-31T16:39:53;6.38;;;2.67;;
10473;SDS011;5284;50.446;7.904;2023-07-31T16:44:56;8.25;;;2.28;;
10473;SDS011;5284;50.446;7.904;2023-07-31T16:49:59;6.55;;;2.13;;
10473;SDS011;5284;50.446;7.904;2023-07-31T16:55:05;8.25;;;3.45;;
10473;SDS011;5284;50.446;7.904;2023-07-31T17:00:09;7.03;;;2.47;;
10473;SDS011;5284;50.446;7.904;2023-07-31T17:05:13;18.00;;;3.00;;
10473;SDS011;5284;50.446;7.904;2023-07-31T17:10:17;5.93;;;2.30;;
10473;SDS011;5284;50.446;7.904;2023-07-31T17:15:22;6.93;;;2.65;;
10473;SDS011;5284;50.446;7.904;2023-07-31T17:20:25;8.60;;;3.03;;
10473;SDS011;5284;50.446;7.904;2023-07-31T17:25:30;11.63;;;2.53;;
10473;SDS011;5284;50.446;7.904;2023-07-31T17:30:33;8.90;;;2.63;;
10473;SDS011;5284;50.446;7.904;2023-07-31T17:35:37;15.75;;;2.53;;
10473;SDS011;5284;50.446;7.904;2023-07-31T17:40:41;10.80;;;2.47;;
10473;SDS011;5284;50.446;7.904;2023-07-31T17:45:45;11.38;;;2.90;;
10473;SDS011;5284;50.446;7.904;2023-07-31T17:50:49;9.07;;;2.90;;
10473;SDS011;5284;50.446;7.904;2023-07-31T17:55:54;13.40;;;3.00;;
10473;SDS011;5284;50.446;7.904;2023-07-31T18:00:58;9.05;;;3.10;;
10473;SDS011;5284;50.446;7.904;2023-07-31T18:06:01;10.82;;;2.85;;
10473;SDS011;5284;50.446;7.904;2023-07-31T18:11:05;16.77;;;3.42;;
10473;SDS011;5284;50.446;7.904;2023-07-31T18:16:08;8.75;;;2.95;;
10473;SDS011;5284;50.446;7.904;2023-07-31T18:21:11;7.95;;;2.85;;
10473;SDS011;5284;50.446;7.904;2023-07-31T18:26:16;17.17;;;3.13;;
10473;SDS011;5284;50.446;7.904;2023-07-31T18:31:20;7.93;;;3.22;;
10473;SDS011;5284;50.446;7.904;2023-07-31T18:36:25;10.95;;;3.95;;
10473;SDS011;5284;50.446;7.904;2023-07-31T18:41:31;18.30;;;3.85;;
10473;SDS011;5284;50.446;7.904;2023-07-31T18:46:34;16.80;;;3.97;;
10473;SDS011;5284;50.446;7.904;2023-07-31T18:51:38;16.90;;;3.30;;
10473;SDS011;5284;50.446;7.904;2023-07-31T18:56:42;11.23;;;3.85;;
10473;SDS011;5284;50.446;7.904;2023-07-31T19:01:45;8.73;;;3.72;;
10473;SDS011;5284;50.446;7.904;2023-07-31T19:06:48;12.07;;;3.38;;
10473;SDS011;5284;50.446;7.904;2023-07-31T19:11:52;8.27;;;3.38;;
10473;SDS011;5284;50.446;7.904;2023-07-31T19:16:56;12.65;;;3.65;;
10473;SDS011;5284;50.446;7.904;2023-07-31T19:21:59;11.27;;;3.35;;
10473;SDS011;5284;50.446;7.904;2023-07-31T19:27:04;11.65;;;4.15;;
10473;SDS011;5284;50.446;7.904;2023-07-31T19:32:07;10.38;;;3.50;;
10473;SDS011;5284;50.446;7.904;2023-07-31T19:37:11;11.57;;;3.45;;
10473;SDS011;5284;50.446;7.904;2023-07-31T19:42:16;9.48;;;3.30;;
10473;SDS011;5284;50.446;7.904;2023-07-31T19:47:19;15.88;;;4.13;;
10473;SDS011;5284;50.446;7.904;2023-07-31T19:52:22;8.23;;;3.10;;
10473;SDS011;5284;50.446;7.904;2023-07-31T19:57:26;10.70;;;3.70;;
10473;SDS011;5284;50.446;7.904;2023-07-31T20:02:31;10.90;;;3.40;;
10473;SDS011;5284;50.446;7.904;2023-07-31T20:07:36;12.73;;;4.65;;
10473;SDS011;5284;50.446;7.904;2023-07-31T20:12:40;14.45;;;2.95;;
10473;SDS011;5284;50.446;7.904;2023-07-31T20:17:45;9.35;;;3.67;;
10473;SDS011;5284;50.446;7.904;2023-07-31T20:22:48;7.32;;;3.22;;
10473;SDS011;5284;50.446;7.904;2023-07-31T20:27:52;16.83;;;3.80;;
10473;SDS011;5284;50.446;7.904;2023-07-31T20:32:56;6.25;;;3.10;;
10473;SDS011;5284;50.446;7.904;2023-07-31T20:37:59;11.23;;;2.95;;
10473;SDS011;5284;50.446;7.904;2023-07-31T20:43:03;9.13;;;3.67;;
10473;SDS011;5284;50.446;7.904;2023-07-31T20:48:08;11.30;;;2.80;;
10473;SDS011;5284;50.446;7.904;2023-07-31T20:53:14;8.75;;;3.05;;
10473;SDS011;5284;50.446;7.904;2023-07-31T20:58:18;13.88;;;3.45;;
10473;SDS011;5284;50.446;7.904;2023-07-31T21:03:21;7.07;;;2.70;;
10473;SDS011;5284;50.446;7.904;2023-07-31T21:08:24;10.40;;;2.72;;
10473;SDS011;5284;50.446;7.904;2023-07-31T21:13:29;6.75;;;2.42;;
10473;SDS011;5284;50.446;7.904;2023-07-31T21:18:34;9.90;;;3.13;;
10473;SDS011;5284;50.446;7.904;2023-07-31T21:23:37;5.45;;;2.70;;
10473;SDS011;5284;50.446;7.904;2023-07-31T21:28:43;11.88;;;2.80;;
10473;SDS011;5284;50.446;7.904;2023-07-31T21:33:45;7.22;;;2.58;;
10473;SDS011;5284;50.446;7.904;2023-07-31T21:38:48;4.82;;;2.47;;
10473;SDS011;5284;50.446;7.904;2023-07-31T21:43:52;8.75;;;3.15;;
10473;SDS011;5284;50.446;7.904;2023-07-31T21:48:55;6.65;;;3.03;;
10473;SDS011;5284;50.446;7.904;2023-07-31T21:53:58;11.55;;;2.50;;
10473;SDS011;5284;50.446;7.904;2023-07-31T21:59:03;6.20;;;2.55;;
10473;SDS011;5284;50.446;7.904;2023-07-31T22:04:07;4.13;;;2.38;;
10473;SDS011;5284;50.446;7.904;2023-07-31T22:09:10;10.27;;;2.92;;
10473;SDS011;5284;50.446;7.904;2023-07-31T22:14:14;4.63;;;2.70;;
10473;SDS011;5284;50.446;7.904;2023-07-31T22:19:17;4.70;;;2.63;;
10473;SDS011;5284;50.446;7.904;2023-07-31T22:24:20;5.30;;;2.33;;
10473;SDS011;5284;50.446;7.904;2023-07-31T22:29:25;5.63;;;2.22;;
10473;SDS011;5284;50.446;7.904;2023-07-31T22:34:28;10.63;;;3.38;;
10473;SDS011;5284;50.446;7.904;2023-07-31T22:39:31;13.10;;;2.45;;
10473;SDS011;5284;50.446;7.904;2023-07-31T22:44:35;4.82;;;2.08;;
10473;SDS011;5284;50.446;7.904;2023-07-31T22:49:38;5.60;;;2.28;;
10473;SDS011;5284;50.446;7.904;2023-07-31T22:54:41;5.88;;;1.95;;
10473;SDS011;5284;50.446;7.904;2023-07-31T22:59:45;4.70;;;2.00;;
10473;SDS011;5284;50.446;7.904;2023-07-31T23:04:48;7.65;;;1.60;;
10473;SDS011;5284;50.446;7.904;2023-07-31T23:09:53;6.90;;;3.25;;
10473;SDS011;5284;50.446;7.904;2023-07-31T23:14:58;3.67;;;1.70;;
10473;SDS011;5284;50.446;7.904;2023-07-31T23:20:00;2.72;;;1.13;;
10473;SDS011;5284;50.446;7.904;2023-07-31T23:25:04;3.95;;;1.42;;
10473;SDS011;5284;50.446;7.904;2023-07-31T23:30:12;2.70;;;1.38;;
10473;SDS011;5284;50.446;7.904;2023-07-31T23:35:14;4.00;;;1.80;;
10473;SDS011;5284;50.446;7.904;2023-07-31T23:40:17;1.77;;;1.10;;
10473;SDS011;5284;50.446;7.904;2023-07-31T23:45:22;3.38;;;1.30;;
10473;SDS011;5284;50.446;7.904;2023-07-31T23:50:25;3.05;;;1.45;;
10473;SDS011;5284;50.446;7.904;2023-07-31T23:55:28;3.33;;;1.58;;
